Current | Forecast
Updated: 9:30 PM JST on February 22, 2018
Observed at Kansai, Japan
Temperature 43°F
Humidity 57%
Dew Point 28°F
Wind Variable at 2 mph
Pressure 30.12 in (Steady)
Conditions Scattered Clouds
Visibility 6.2 miles
UV 0 out of 16
Clouds (FEW) : 4000 ft
Scattered Clouds (SCT) : 5000 ft
Yesterday's Maximum 48°F
Yesterday's Minimum 41°F approx.
Yesterday's Heating Degree Days 20 approx.
Sunrise6:37 AM JST
Sunset5:49 PM JST
Moon Rise10:23 AM JST
Moon Set
Moon PhaseMoon Phase
Waxing Crescent
Raw METARMETAR RJBB 221230Z VRB02KT 9999 FEW040 SCT050 BKN/// 06/M02 Q1020 NOSIG


Monday
. High: 75° F.
Tuesday
. High: 73° F.
Wednesday
. High: 73° F.
Thursday
. High: 75° F.
Friday
. High: 73° F.
Saturday
. High: 73° F.
Sunday
. High: 75° F.
Monday
. High: 77° F.

Units: English | Metric

Find the Weather for any City, State or Zipcode, or Country:

U.S. State List | Severe Weather | Tropical Storms | Ski Conditions
United States | Canada | Central America | South America | Asia | Europe | Australia | Africa | Islands

Weather Underground

© Copyright 2018
The Weather Company, LLC